sensor_id;sensor_type;location;lat;lon;timestamp;P1;durP1;ratioP1;P2;durP2;ratioP2
12267;SDS011;6196;48.398;11.736;2022-11-15T00:01:08;10.70;;;9.47;;
12267;SDS011;6196;48.398;11.736;2022-11-15T00:03:41;9.87;;;8.87;;
12267;SDS011;6196;48.398;11.736;2022-11-15T00:06:08;10.33;;;9.20;;
12267;SDS011;6196;48.398;11.736;2022-11-15T00:08:35;11.33;;;9.20;;
12267;SDS011;6196;48.398;11.736;2022-11-15T00:11:02;11.03;;;9.23;;
12267;SDS011;6196;48.398;11.736;2022-11-15T00:13:29;11.70;;;9.70;;
12267;SDS011;6196;48.398;11.736;2022-11-15T00:15:57;11.97;;;10.57;;
12267;SDS011;6196;48.398;11.736;2022-11-15T00:18:26;11.63;;;9.47;;
12267;SDS011;6196;48.398;11.736;2022-11-15T00:20:54;12.47;;;10.03;;
12267;SDS011;6196;48.398;11.736;2022-11-15T00:23:21;10.97;;;9.70;;
12267;SDS011;6196;48.398;11.736;2022-11-15T00:25:54;13.47;;;10.03;;
12267;SDS011;6196;48.398;11.736;2022-11-15T00:28:24;10.37;;;9.27;;
12267;SDS011;6196;48.398;11.736;2022-11-15T00:30:51;10.43;;;9.23;;
12267;SDS011;6196;48.398;11.736;2022-11-15T00:33:19;12.03;;;10.07;;
12267;SDS011;6196;48.398;11.736;2022-11-15T00:35:45;12.40;;;9.80;;
12267;SDS011;6196;48.398;11.736;2022-11-15T00:38:12;10.80;;;9.20;;
12267;SDS011;6196;48.398;11.736;2022-11-15T00:40:39;10.50;;;9.40;;
12267;SDS011;6196;48.398;11.736;2022-11-15T00:43:06;13.50;;;9.90;;
12267;SDS011;6196;48.398;11.736;2022-11-15T00:45:33;10.73;;;9.47;;
12267;SDS011;6196;48.398;11.736;2022-11-15T00:48:00;12.03;;;10.00;;
12267;SDS011;6196;48.398;11.736;2022-11-15T00:50:27;12.33;;;10.43;;
12267;SDS011;6196;48.398;11.736;2022-11-15T00:52:53;11.97;;;9.87;;
12267;SDS011;6196;48.398;11.736;2022-11-15T00:55:20;11.20;;;9.23;;
12267;SDS011;6196;48.398;11.736;2022-11-15T00:57:47;11.23;;;10.03;;
12267;SDS011;6196;48.398;11.736;2022-11-15T01:00:14;10.73;;;9.10;;
12267;SDS011;6196;48.398;11.736;2022-11-15T01:02:41;12.80;;;9.67;;
12267;SDS011;6196;48.398;11.736;2022-11-15T01:05:08;12.90;;;9.93;;
12267;SDS011;6196;48.398;11.736;2022-11-15T01:07:35;9.47;;;8.47;;
12267;SDS011;6196;48.398;11.736;2022-11-15T01:10:02;10.90;;;9.27;;
12267;SDS011;6196;48.398;11.736;2022-11-15T01:12:30;11.07;;;9.80;;
12267;SDS011;6196;48.398;11.736;2022-11-15T01:14:58;10.60;;;9.50;;
12267;SDS011;6196;48.398;11.736;2022-11-15T01:17:24;11.20;;;9.73;;
12267;SDS011;6196;48.398;11.736;2022-11-15T01:19:52;10.03;;;8.90;;
12267;SDS011;6196;48.398;11.736;2022-11-15T01:22:18;10.77;;;9.67;;
12267;SDS011;6196;48.398;11.736;2022-11-15T01:24:45;11.07;;;9.87;;
12267;SDS011;6196;48.398;11.736;2022-11-15T01:27:12;11.30;;;9.53;;
12267;SDS011;6196;48.398;11.736;2022-11-15T01:29:39;10.77;;;8.93;;
12267;SDS011;6196;48.398;11.736;2022-11-15T01:32:06;11.60;;;9.63;;
12267;SDS011;6196;48.398;11.736;2022-11-15T01:34:33;10.00;;;8.60;;
12267;SDS011;6196;48.398;11.736;2022-11-15T01:37:00;9.77;;;8.00;;
12267;SDS011;6196;48.398;11.736;2022-11-15T01:39:27;9.37;;;8.47;;
12267;SDS011;6196;48.398;11.736;2022-11-15T01:41:54;9.03;;;8.07;;
12267;SDS011;6196;48.398;11.736;2022-11-15T01:46:57;8.70;;;7.80;;
12267;SDS011;6196;48.398;11.736;2022-11-15T01:49:32;8.70;;;7.80;;
12267;SDS011;6196;48.398;11.736;2022-11-15T01:52:02;11.23;;;8.03;;
12267;SDS011;6196;48.398;11.736;2022-11-15T01:54:33;9.63;;;8.67;;
12267;SDS011;6196;48.398;11.736;2022-11-15T01:57:04;9.73;;;8.37;;
12267;SDS011;6196;48.398;11.736;2022-11-15T01:59:36;11.37;;;8.43;;
12267;SDS011;6196;48.398;11.736;2022-11-15T02:02:06;9.43;;;8.27;;
12267;SDS011;6196;48.398;11.736;2022-11-15T02:04:35;10.57;;;8.57;;
12267;SDS011;6196;48.398;11.736;2022-11-15T02:07:12;10.77;;;8.63;;
12267;SDS011;6196;48.398;11.736;2022-11-15T02:09:44;10.83;;;8.93;;
12267;SDS011;6196;48.398;11.736;2022-11-15T02:12:13;9.03;;;8.10;;
12267;SDS011;6196;48.398;11.736;2022-11-15T02:14:44;9.63;;;8.63;;
12267;SDS011;6196;48.398;11.736;2022-11-15T02:26:36;11.40;;;9.03;;
12267;SDS011;6196;48.398;11.736;2022-11-15T02:32:40;9.23;;;7.80;;
12267;SDS011;6196;48.398;11.736;2022-11-15T02:38:06;8.00;;;7.20;;
12267;SDS011;6196;48.398;11.736;2022-11-15T02:40:49;8.70;;;7.23;;
12267;SDS011;6196;48.398;11.736;2022-11-15T02:43:32;7.63;;;6.90;;
12267;SDS011;6196;48.398;11.736;2022-11-15T02:49:36;10.83;;;7.43;;
12267;SDS011;6196;48.398;11.736;2022-11-15T02:52:06;8.60;;;7.17;;
12267;SDS011;6196;48.398;11.736;2022-11-15T02:54:33;9.20;;;7.30;;
12267;SDS011;6196;48.398;11.736;2022-11-15T02:57:05;7.90;;;7.10;;
12267;SDS011;6196;48.398;11.736;2022-11-15T03:11:03;7.83;;;7.03;;
12267;SDS011;6196;48.398;11.736;2022-11-15T03:13:43;7.77;;;6.90;;
12267;SDS011;6196;48.398;11.736;2022-11-15T03:16:37;7.70;;;6.97;;
12267;SDS011;6196;48.398;11.736;2022-11-15T03:19:28;7.23;;;6.53;;
12267;SDS011;6196;48.398;11.736;2022-11-15T03:22:07;8.27;;;6.60;;
12267;SDS011;6196;48.398;11.736;2022-11-15T03:24:38;6.80;;;5.97;;
12267;SDS011;6196;48.398;11.736;2022-11-15T03:27:07;7.10;;;6.33;;
12267;SDS011;6196;48.398;11.736;2022-11-15T03:29:37;8.50;;;6.00;;
12267;SDS011;6196;48.398;11.736;2022-11-15T03:32:15;6.57;;;5.63;;
12267;SDS011;6196;48.398;11.736;2022-11-15T03:34:56;7.43;;;6.20;;
12267;SDS011;6196;48.398;11.736;2022-11-15T03:37:27;6.80;;;6.13;;
12267;SDS011;6196;48.398;11.736;2022-11-15T03:40:01;6.70;;;6.00;;
12267;SDS011;6196;48.398;11.736;2022-11-15T03:42:31;8.53;;;6.30;;
12267;SDS011;6196;48.398;11.736;2022-11-15T03:50:36;7.97;;;6.43;;
12267;SDS011;6196;48.398;11.736;2022-11-15T03:53:04;6.57;;;5.93;;
12267;SDS011;6196;48.398;11.736;2022-11-15T03:55:31;6.43;;;5.63;;
12267;SDS011;6196;48.398;11.736;2022-11-15T03:57:59;6.63;;;5.93;;
12267;SDS011;6196;48.398;11.736;2022-11-15T04:00:27;7.63;;;5.93;;
12267;SDS011;6196;48.398;11.736;2022-11-15T04:02:55;6.83;;;6.07;;
12267;SDS011;6196;48.398;11.736;2022-11-15T04:05:22;7.83;;;6.80;;
12267;SDS011;6196;48.398;11.736;2022-11-15T04:07:49;7.20;;;5.90;;
12267;SDS011;6196;48.398;11.736;2022-11-15T04:10:16;6.60;;;5.90;;
12267;SDS011;6196;48.398;11.736;2022-11-15T04:12:44;7.77;;;6.83;;
12267;SDS011;6196;48.398;11.736;2022-11-15T04:15:15;8.93;;;7.60;;
12267;SDS011;6196;48.398;11.736;2022-11-15T04:17:46;7.10;;;6.33;;
12267;SDS011;6196;48.398;11.736;2022-11-15T04:20:22;6.90;;;6.10;;
12267;SDS011;6196;48.398;11.736;2022-11-15T04:23:16;8.57;;;6.63;;
12267;SDS011;6196;48.398;11.736;2022-11-15T04:26:05;7.03;;;6.20;;
12267;SDS011;6196;48.398;11.736;2022-11-15T04:28:43;7.50;;;6.43;;
12267;SDS011;6196;48.398;11.736;2022-11-15T04:31:29;7.37;;;6.67;;
12267;SDS011;6196;48.398;11.736;2022-11-15T04:33:56;6.57;;;5.97;;
12267;SDS011;6196;48.398;11.736;2022-11-15T04:36:23;7.93;;;6.53;;
12267;SDS011;6196;48.398;11.736;2022-11-15T04:39:09;7.50;;;6.57;;
12267;SDS011;6196;48.398;11.736;2022-11-15T04:41:35;8.07;;;7.27;;
12267;SDS011;6196;48.398;11.736;2022-11-15T04:44:02;8.50;;;7.63;;
12267;SDS011;6196;48.398;11.736;2022-11-15T04:46:29;9.20;;;7.53;;
12267;SDS011;6196;48.398;11.736;2022-11-15T04:48:56;9.13;;;8.17;;
12267;SDS011;6196;48.398;11.736;2022-11-15T04:51:24;8.70;;;7.73;;
12267;SDS011;6196;48.398;11.736;2022-11-15T04:53:52;10.70;;;8.53;;
12267;SDS011;6196;48.398;11.736;2022-11-15T04:56:19;12.23;;;8.70;;
12267;SDS011;6196;48.398;11.736;2022-11-15T04:58:48;11.47;;;8.90;;
12267;SDS011;6196;48.398;11.736;2022-11-15T05:01:15;9.87;;;8.70;;
12267;SDS011;6196;48.398;11.736;2022-11-15T05:03:43;10.57;;;8.67;;
12267;SDS011;6196;48.398;11.736;2022-11-15T05:06:30;10.30;;;8.67;;
12267;SDS011;6196;48.398;11.736;2022-11-15T05:08:57;10.00;;;8.47;;
12267;SDS011;6196;48.398;11.736;2022-11-15T05:11:24;9.07;;;8.17;;
12267;SDS011;6196;48.398;11.736;2022-11-15T05:13:53;10.37;;;8.03;;
12267;SDS011;6196;48.398;11.736;2022-11-15T05:16:20;8.93;;;8.00;;
12267;SDS011;6196;48.398;11.736;2022-11-15T05:18:50;7.63;;;6.83;;
12267;SDS011;6196;48.398;11.736;2022-11-15T05:21:18;6.80;;;6.10;;
12267;SDS011;6196;48.398;11.736;2022-11-15T05:23:45;9.13;;;6.63;;
12267;SDS011;6196;48.398;11.736;2022-11-15T05:26:12;7.43;;;6.33;;
12267;SDS011;6196;48.398;11.736;2022-11-15T05:28:41;7.40;;;6.63;;
12267;SDS011;6196;48.398;11.736;2022-11-15T05:31:09;7.10;;;6.13;;
12267;SDS011;6196;48.398;11.736;2022-11-15T05:33:39;6.77;;;6.03;;
12267;SDS011;6196;48.398;11.736;2022-11-15T05:36:09;7.17;;;6.13;;
12267;SDS011;6196;48.398;11.736;2022-11-15T05:38:37;8.13;;;6.63;;
12267;SDS011;6196;48.398;11.736;2022-11-15T05:41:04;7.70;;;6.00;;
12267;SDS011;6196;48.398;11.736;2022-11-15T05:43:32;7.90;;;7.10;;
12267;SDS011;6196;48.398;11.736;2022-11-15T05:46:01;10.87;;;7.40;;
12267;SDS011;6196;48.398;11.736;2022-11-15T05:48:31;7.50;;;6.47;;
12267;SDS011;6196;48.398;11.736;2022-11-15T05:51:02;7.97;;;6.73;;
12267;SDS011;6196;48.398;11.736;2022-11-15T05:53:30;8.00;;;7.03;;
12267;SDS011;6196;48.398;11.736;2022-11-15T05:55:58;9.53;;;7.90;;
12267;SDS011;6196;48.398;11.736;2022-11-15T05:58:25;12.30;;;10.60;;
12267;SDS011;6196;48.398;11.736;2022-11-15T06:00:52;11.27;;;9.73;;
12267;SDS011;6196;48.398;11.736;2022-11-15T06:03:20;12.03;;;10.00;;
12267;SDS011;6196;48.398;11.736;2022-11-15T06:05:47;10.07;;;9.00;;
12267;SDS011;6196;48.398;11.736;2022-11-15T06:08:14;12.07;;;9.27;;
12267;SDS011;6196;48.398;11.736;2022-11-15T06:10:41;10.50;;;9.40;;
12267;SDS011;6196;48.398;11.736;2022-11-15T06:13:08;10.93;;;8.80;;
12267;SDS011;6196;48.398;11.736;2022-11-15T06:15:34;11.63;;;8.37;;
12267;SDS011;6196;48.398;11.736;2022-11-15T06:18:01;9.40;;;8.50;;
12267;SDS011;6196;48.398;11.736;2022-11-15T06:20:28;8.50;;;7.60;;
12267;SDS011;6196;48.398;11.736;2022-11-15T06:22:57;10.63;;;9.23;;
12267;SDS011;6196;48.398;11.736;2022-11-15T06:25:29;13.40;;;8.57;;
12267;SDS011;6196;48.398;11.736;2022-11-15T06:27:57;12.93;;;8.70;;
12267;SDS011;6196;48.398;11.736;2022-11-15T06:30:25;10.47;;;8.17;;
12267;SDS011;6196;48.398;11.736;2022-11-15T06:33:03;10.90;;;8.17;;
12267;SDS011;6196;48.398;11.736;2022-11-15T06:35:33;8.70;;;7.77;;
12267;SDS011;6196;48.398;11.736;2022-11-15T06:38:05;11.23;;;7.63;;
12267;SDS011;6196;48.398;11.736;2022-11-15T06:40:35;10.13;;;6.70;;
12267;SDS011;6196;48.398;11.736;2022-11-15T06:43:03;10.40;;;8.30;;
12267;SDS011;6196;48.398;11.736;2022-11-15T06:45:31;9.97;;;7.83;;
12267;SDS011;6196;48.398;11.736;2022-11-15T06:47:58;16.37;;;10.77;;
12267;SDS011;6196;48.398;11.736;2022-11-15T06:50:25;12.07;;;9.77;;
12267;SDS011;6196;48.398;11.736;2022-11-15T06:52:52;11.87;;;9.47;;
12267;SDS011;6196;48.398;11.736;2022-11-15T06:55:20;9.70;;;8.07;;
12267;SDS011;6196;48.398;11.736;2022-11-15T06:57:50;10.70;;;8.57;;
12267;SDS011;6196;48.398;11.736;2022-11-15T07:00:18;10.70;;;6.93;;
12267;SDS011;6196;48.398;11.736;2022-11-15T07:02:47;7.80;;;7.00;;
12267;SDS011;6196;48.398;11.736;2022-11-15T07:05:15;7.97;;;7.20;;
12267;SDS011;6196;48.398;11.736;2022-11-15T07:07:42;10.40;;;7.27;;
12267;SDS011;6196;48.398;11.736;2022-11-15T07:10:09;9.57;;;7.10;;
12267;SDS011;6196;48.398;11.736;2022-11-15T07:12:36;9.37;;;6.90;;
12267;SDS011;6196;48.398;11.736;2022-11-15T07:15:03;7.47;;;6.73;;
12267;SDS011;6196;48.398;11.736;2022-11-15T07:17:30;11.43;;;6.50;;
12267;SDS011;6196;48.398;11.736;2022-11-15T07:19:57;8.77;;;6.37;;
12267;SDS011;6196;48.398;11.736;2022-11-15T07:22:24;15.03;;;7.40;;
12267;SDS011;6196;48.398;11.736;2022-11-15T07:24:51;11.33;;;7.10;;
12267;SDS011;6196;48.398;11.736;2022-11-15T07:27:18;9.93;;;8.93;;
12267;SDS011;6196;48.398;11.736;2022-11-15T07:29:45;8.77;;;7.87;;
12267;SDS011;6196;48.398;11.736;2022-11-15T07:32:11;8.70;;;6.93;;
12267;SDS011;6196;48.398;11.736;2022-11-15T07:34:38;12.27;;;7.23;;
12267;SDS011;6196;48.398;11.736;2022-11-15T07:37:05;9.47;;;7.73;;
12267;SDS011;6196;48.398;11.736;2022-11-15T07:39:32;8.37;;;7.57;;
12267;SDS011;6196;48.398;11.736;2022-11-15T07:41:59;8.57;;;7.40;;
12267;SDS011;6196;48.398;11.736;2022-11-15T07:44:44;9.20;;;8.30;;
12267;SDS011;6196;48.398;11.736;2022-11-15T07:47:11;8.87;;;7.93;;
12267;SDS011;6196;48.398;11.736;2022-11-15T07:49:38;9.07;;;7.40;;
12267;SDS011;6196;48.398;11.736;2022-11-15T07:52:05;9.10;;;7.43;;
12267;SDS011;6196;48.398;11.736;2022-11-15T07:54:32;8.67;;;7.43;;
12267;SDS011;6196;48.398;11.736;2022-11-15T07:56:59;9.77;;;7.37;;
12267;SDS011;6196;48.398;11.736;2022-11-15T07:59:32;8.80;;;7.00;;
12267;SDS011;6196;48.398;11.736;2022-11-15T08:02:01;9.83;;;7.63;;
12267;SDS011;6196;48.398;11.736;2022-11-15T08:04:28;8.83;;;7.10;;
12267;SDS011;6196;48.398;11.736;2022-11-15T08:06:55;7.67;;;6.97;;
12267;SDS011;6196;48.398;11.736;2022-11-15T08:09:23;7.63;;;6.93;;
12267;SDS011;6196;48.398;11.736;2022-11-15T08:11:50;8.33;;;7.40;;
12267;SDS011;6196;48.398;11.736;2022-11-15T08:14:17;7.60;;;6.67;;
12267;SDS011;6196;48.398;11.736;2022-11-15T08:16:43;7.43;;;6.77;;
12267;SDS011;6196;48.398;11.736;2022-11-15T08:19:10;8.07;;;7.20;;
12267;SDS011;6196;48.398;11.736;2022-11-15T08:21:37;11.47;;;7.50;;
12267;SDS011;6196;48.398;11.736;2022-11-15T08:24:04;8.27;;;7.10;;
12267;SDS011;6196;48.398;11.736;2022-11-15T08:26:31;8.23;;;7.43;;
12267;SDS011;6196;48.398;11.736;2022-11-15T08:28:58;7.27;;;6.67;;
12267;SDS011;6196;48.398;11.736;2022-11-15T08:31:25;8.20;;;6.63;;
12267;SDS011;6196;48.398;11.736;2022-11-15T08:33:52;8.17;;;7.20;;
12267;SDS011;6196;48.398;11.736;2022-11-15T08:36:19;7.87;;;6.73;;
12267;SDS011;6196;48.398;11.736;2022-11-15T08:38:49;7.90;;;7.20;;
12267;SDS011;6196;48.398;11.736;2022-11-15T08:41:35;8.37;;;7.47;;
12267;SDS011;6196;48.398;11.736;2022-11-15T08:44:03;7.57;;;6.87;;
12267;SDS011;6196;48.398;11.736;2022-11-15T08:46:31;7.47;;;6.77;;
12267;SDS011;6196;48.398;11.736;2022-11-15T08:48:58;7.63;;;6.60;;
12267;SDS011;6196;48.398;11.736;2022-11-15T08:51:24;7.10;;;6.40;;
12267;SDS011;6196;48.398;11.736;2022-11-15T08:53:51;6.87;;;6.17;;
12267;SDS011;6196;48.398;11.736;2022-11-15T08:56:18;7.10;;;6.40;;
12267;SDS011;6196;48.398;11.736;2022-11-15T08:58:45;7.50;;;6.70;;
12267;SDS011;6196;48.398;11.736;2022-11-15T09:01:17;7.03;;;6.40;;
12267;SDS011;6196;48.398;11.736;2022-11-15T09:03:45;6.47;;;5.70;;
12267;SDS011;6196;48.398;11.736;2022-11-15T09:06:13;6.63;;;6.03;;
12267;SDS011;6196;48.398;11.736;2022-11-15T09:08:40;6.13;;;5.63;;
12267;SDS011;6196;48.398;11.736;2022-11-15T09:11:14;6.07;;;5.47;;
12267;SDS011;6196;48.398;11.736;2022-11-15T09:13:44;8.20;;;6.03;;
12267;SDS011;6196;48.398;11.736;2022-11-15T09:16:10;5.77;;;5.20;;
12267;SDS011;6196;48.398;11.736;2022-11-15T09:18:38;6.33;;;5.13;;
12267;SDS011;6196;48.398;11.736;2022-11-15T09:21:05;5.43;;;4.93;;
12267;SDS011;6196;48.398;11.736;2022-11-15T09:23:32;5.87;;;4.80;;
12267;SDS011;6196;48.398;11.736;2022-11-15T09:26:00;6.77;;;4.90;;
12267;SDS011;6196;48.398;11.736;2022-11-15T09:28:29;4.40;;;4.00;;
12267;SDS011;6196;48.398;11.736;2022-11-15T09:30:58;4.30;;;3.90;;
12267;SDS011;6196;48.398;11.736;2022-11-15T09:33:29;5.00;;;4.50;;
12267;SDS011;6196;48.398;11.736;2022-11-15T09:36:01;4.80;;;4.40;;
12267;SDS011;6196;48.398;11.736;2022-11-15T09:38:33;4.57;;;4.17;;
12267;SDS011;6196;48.398;11.736;2022-11-15T09:49:34;5.23;;;4.77;;
12267;SDS011;6196;48.398;11.736;2022-11-15T09:52:01;4.40;;;4.00;;
12267;SDS011;6196;48.398;11.736;2022-11-15T09:54:30;5.93;;;5.10;;
12267;SDS011;6196;48.398;11.736;2022-11-15T09:57:24;6.17;;;4.37;;
12267;SDS011;6196;48.398;11.736;2022-11-15T10:00:15;5.87;;;4.33;;
12267;SDS011;6196;48.398;11.736;2022-11-15T10:03:12;4.60;;;4.20;;
12267;SDS011;6196;48.398;11.736;2022-11-15T10:05:47;5.87;;;4.40;;
12267;SDS011;6196;48.398;11.736;2022-11-15T10:11:35;5.30;;;4.80;;
12267;SDS011;6196;48.398;11.736;2022-11-15T10:14:15;5.00;;;4.40;;
12267;SDS011;6196;48.398;11.736;2022-11-15T10:19:52;4.97;;;4.40;;
12267;SDS011;6196;48.398;11.736;2022-11-15T10:27:35;4.40;;;4.00;;
12267;SDS011;6196;48.398;11.736;2022-11-15T10:30:03;4.30;;;3.87;;
12267;SDS011;6196;48.398;11.736;2022-11-15T10:32:37;4.67;;;4.17;;
12267;SDS011;6196;48.398;11.736;2022-11-15T10:38:04;4.17;;;3.80;;
12267;SDS011;6196;48.398;11.736;2022-11-15T10:40:34;4.27;;;3.87;;
12267;SDS011;6196;48.398;11.736;2022-11-15T10:45:40;4.07;;;3.67;;
12267;SDS011;6196;48.398;11.736;2022-11-15T10:50:41;4.30;;;3.90;;
12267;SDS011;6196;48.398;11.736;2022-11-15T10:53:12;3.90;;;3.50;;
12267;SDS011;6196;48.398;11.736;2022-11-15T10:56:05;5.03;;;3.63;;
12267;SDS011;6196;48.398;11.736;2022-11-15T10:58:42;4.23;;;3.60;;
12267;SDS011;6196;48.398;11.736;2022-11-15T11:01:17;3.90;;;3.60;;
12267;SDS011;6196;48.398;11.736;2022-11-15T11:03:59;3.93;;;3.63;;
12267;SDS011;6196;48.398;11.736;2022-11-15T11:09:30;4.20;;;3.80;;
12267;SDS011;6196;48.398;11.736;2022-11-15T11:12:05;4.37;;;3.97;;
12267;SDS011;6196;48.398;11.736;2022-11-15T11:14:38;4.00;;;3.60;;
12267;SDS011;6196;48.398;11.736;2022-11-15T11:17:09;4.50;;;4.10;;
12267;SDS011;6196;48.398;11.736;2022-11-15T11:28:39;4.37;;;4.00;;
12267;SDS011;6196;48.398;11.736;2022-11-15T11:31:29;4.07;;;3.67;;
12267;SDS011;6196;48.398;11.736;2022-11-15T11:37:33;4.20;;;3.83;;
12267;SDS011;6196;48.398;11.736;2022-11-15T11:40:27;4.47;;;4.10;;
12267;SDS011;6196;48.398;11.736;2022-11-15T11:51:19;4.47;;;4.10;;
12267;SDS011;6196;48.398;11.736;2022-11-15T11:56:39;4.80;;;4.10;;
12267;SDS011;6196;48.398;11.736;2022-11-15T11:59:17;5.00;;;4.13;;
12267;SDS011;6196;48.398;11.736;2022-11-15T12:01:57;4.13;;;3.80;;
12267;SDS011;6196;48.398;11.736;2022-11-15T12:04:38;4.77;;;4.27;;
12267;SDS011;6196;48.398;11.736;2022-11-15T12:15:31;4.03;;;3.63;;
12267;SDS011;6196;48.398;11.736;2022-11-15T12:18:08;4.83;;;3.90;;
12267;SDS011;6196;48.398;11.736;2022-11-15T12:20:41;4.43;;;4.07;;
12267;SDS011;6196;48.398;11.736;2022-11-15T12:23:31;4.43;;;4.03;;
12267;SDS011;6196;48.398;11.736;2022-11-15T12:26:10;4.50;;;4.10;;
12267;SDS011;6196;48.398;11.736;2022-11-15T12:28:51;4.07;;;3.77;;
12267;SDS011;6196;48.398;11.736;2022-11-15T12:34:46;4.03;;;3.73;;
12267;SDS011;6196;48.398;11.736;2022-11-15T12:36:49;4.70;;;4.20;;
12267;SDS011;6196;48.398;11.736;2022-11-15T12:39:19;4.83;;;4.43;;
12267;SDS011;6196;48.398;11.736;2022-11-15T12:44:55;5.37;;;3.90;;
12267;SDS011;6196;48.398;11.736;2022-11-15T12:47:22;4.57;;;3.60;;
12267;SDS011;6196;48.398;11.736;2022-11-15T12:49:51;4.40;;;4.00;;
12267;SDS011;6196;48.398;11.736;2022-11-15T12:52:19;3.93;;;3.30;;
12267;SDS011;6196;48.398;11.736;2022-11-15T12:54:50;3.57;;;3.27;;
12267;SDS011;6196;48.398;11.736;2022-11-15T12:57:27;3.40;;;3.10;;
12267;SDS011;6196;48.398;11.736;2022-11-15T13:00:02;3.63;;;2.93;;
12267;SDS011;6196;48.398;11.736;2022-11-15T13:03:12;3.50;;;3.20;;
12267;SDS011;6196;48.398;11.736;2022-11-15T13:11:42;3.23;;;3.03;;
12267;SDS011;6196;48.398;11.736;2022-11-15T13:14:34;2.90;;;2.60;;
12267;SDS011;6196;48.398;11.736;2022-11-15T13:19:46;4.37;;;3.30;;
12267;SDS011;6196;48.398;11.736;2022-11-15T13:22:25;3.27;;;2.97;;
12267;SDS011;6196;48.398;11.736;2022-11-15T13:34:26;3.97;;;3.37;;
12267;SDS011;6196;48.398;11.736;2022-11-15T13:39:46;2.87;;;2.67;;
12267;SDS011;6196;48.398;11.736;2022-11-15T13:42:16;3.43;;;3.10;;
12267;SDS011;6196;48.398;11.736;2022-11-15T13:44:55;3.10;;;2.80;;
12267;SDS011;6196;48.398;11.736;2022-11-15T13:47:28;3.37;;;3.07;;
12267;SDS011;6196;48.398;11.736;2022-11-15T13:49:57;3.73;;;2.77;;
12267;SDS011;6196;48.398;11.736;2022-11-15T13:52:27;3.07;;;2.80;;
12267;SDS011;6196;48.398;11.736;2022-11-15T13:54:59;5.07;;;3.17;;
12267;SDS011;6196;48.398;11.736;2022-11-15T13:57:37;3.40;;;3.10;;
12267;SDS011;6196;48.398;11.736;2022-11-15T14:00:28;3.17;;;2.90;;
12267;SDS011;6196;48.398;11.736;2022-11-15T14:03:21;3.20;;;2.90;;
12267;SDS011;6196;48.398;11.736;2022-11-15T14:11:48;4.37;;;3.63;;
12267;SDS011;6196;48.398;11.736;2022-11-15T14:14:21;3.80;;;3.50;;
12267;SDS011;6196;48.398;11.736;2022-11-15T14:16:51;3.63;;;3.13;;
12267;SDS011;6196;48.398;11.736;2022-11-15T14:22:12;4.40;;;3.67;;
12267;SDS011;6196;48.398;11.736;2022-11-15T14:24:42;3.80;;;3.40;;
12267;SDS011;6196;48.398;11.736;2022-11-15T14:27:25;3.83;;;3.53;;
12267;SDS011;6196;48.398;11.736;2022-11-15T14:29:54;6.03;;;3.60;;
12267;SDS011;6196;48.398;11.736;2022-11-15T14:32:22;4.33;;;3.60;;
12267;SDS011;6196;48.398;11.736;2022-11-15T14:34:59;3.93;;;3.63;;
12267;SDS011;6196;48.398;11.736;2022-11-15T14:37:31;3.90;;;3.60;;
12267;SDS011;6196;48.398;11.736;2022-11-15T14:40:01;3.43;;;3.13;;
12267;SDS011;6196;48.398;11.736;2022-11-15T14:42:30;3.60;;;3.30;;
12267;SDS011;6196;48.398;11.736;2022-11-15T14:44:57;3.90;;;3.60;;
12267;SDS011;6196;48.398;11.736;2022-11-15T14:47:24;4.80;;;4.40;;
12267;SDS011;6196;48.398;11.736;2022-11-15T14:49:51;5.40;;;4.07;;
12267;SDS011;6196;48.398;11.736;2022-11-15T14:52:23;3.97;;;3.53;;
12267;SDS011;6196;48.398;11.736;2022-11-15T14:54:58;4.30;;;4.00;;
12267;SDS011;6196;48.398;11.736;2022-11-15T14:57:28;5.30;;;4.10;;
12267;SDS011;6196;48.398;11.736;2022-11-15T14:59:56;4.40;;;4.00;;
12267;SDS011;6196;48.398;11.736;2022-11-15T15:02:24;4.33;;;3.93;;
12267;SDS011;6196;48.398;11.736;2022-11-15T15:04:53;5.03;;;4.63;;
12267;SDS011;6196;48.398;11.736;2022-11-15T15:07:20;4.97;;;4.57;;
12267;SDS011;6196;48.398;11.736;2022-11-15T15:09:47;6.20;;;4.30;;
12267;SDS011;6196;48.398;11.736;2022-11-15T15:12:18;5.57;;;4.67;;
12267;SDS011;6196;48.398;11.736;2022-11-15T15:14:49;5.60;;;5.10;;
12267;SDS011;6196;48.398;11.736;2022-11-15T15:17:17;5.33;;;4.80;;
12267;SDS011;6196;48.398;11.736;2022-11-15T15:19:44;7.00;;;4.93;;
12267;SDS011;6196;48.398;11.736;2022-11-15T15:22:15;7.67;;;5.90;;
12267;SDS011;6196;48.398;11.736;2022-11-15T15:24:45;8.50;;;5.57;;
12267;SDS011;6196;48.398;11.736;2022-11-15T15:27:12;7.27;;;4.87;;
12267;SDS011;6196;48.398;11.736;2022-11-15T15:29:40;7.50;;;5.50;;
12267;SDS011;6196;48.398;11.736;2022-11-15T15:32:08;11.03;;;6.63;;
12267;SDS011;6196;48.398;11.736;2022-11-15T15:34:36;9.43;;;6.03;;
12267;SDS011;6196;48.398;11.736;2022-11-15T15:37:06;7.00;;;5.40;;
12267;SDS011;6196;48.398;11.736;2022-11-15T15:39:34;9.03;;;5.57;;
12267;SDS011;6196;48.398;11.736;2022-11-15T15:42:01;8.67;;;6.03;;
12267;SDS011;6196;48.398;11.736;2022-11-15T15:44:29;8.80;;;5.87;;
12267;SDS011;6196;48.398;11.736;2022-11-15T15:46:56;10.17;;;7.60;;
12267;SDS011;6196;48.398;11.736;2022-11-15T15:49:23;10.43;;;8.60;;
12267;SDS011;6196;48.398;11.736;2022-11-15T15:51:50;13.07;;;10.03;;
12267;SDS011;6196;48.398;11.736;2022-11-15T15:54:17;23.43;;;17.27;;
12267;SDS011;6196;48.398;11.736;2022-11-15T15:56:44;23.20;;;17.57;;
12267;SDS011;6196;48.398;11.736;2022-11-15T15:59:11;46.60;;;34.00;;
12267;SDS011;6196;48.398;11.736;2022-11-15T16:01:38;43.93;;;33.40;;
12267;SDS011;6196;48.398;11.736;2022-11-15T16:04:04;30.20;;;18.90;;
12267;SDS011;6196;48.398;11.736;2022-11-15T16:06:36;18.20;;;14.20;;
12267;SDS011;6196;48.398;11.736;2022-11-15T16:09:05;80.90;;;58.63;;
12267;SDS011;6196;48.398;11.736;2022-11-15T16:11:43;48.00;;;35.60;;
12267;SDS011;6196;48.398;11.736;2022-11-15T16:14:12;22.93;;;17.67;;
12267;SDS011;6196;48.398;11.736;2022-11-15T16:16:39;14.80;;;9.70;;
12267;SDS011;6196;48.398;11.736;2022-11-15T16:19:06;9.87;;;8.20;;
12267;SDS011;6196;48.398;11.736;2022-11-15T16:21:34;5.70;;;5.10;;
12267;SDS011;6196;48.398;11.736;2022-11-15T16:24:01;5.10;;;4.17;;
12267;SDS011;6196;48.398;11.736;2022-11-15T16:26:28;6.63;;;5.67;;
12267;SDS011;6196;48.398;11.736;2022-11-15T16:28:55;5.20;;;4.70;;
12267;SDS011;6196;48.398;11.736;2022-11-15T16:31:23;5.93;;;5.33;;
12267;SDS011;6196;48.398;11.736;2022-11-15T16:33:50;7.70;;;5.17;;
12267;SDS011;6196;48.398;11.736;2022-11-15T16:38:55;5.60;;;5.10;;
12267;SDS011;6196;48.398;11.736;2022-11-15T16:41:22;7.33;;;6.60;;
12267;SDS011;6196;48.398;11.736;2022-11-15T16:43:49;9.83;;;8.17;;
12267;SDS011;6196;48.398;11.736;2022-11-15T16:48:46;12.07;;;7.27;;
12267;SDS011;6196;48.398;11.736;2022-11-15T16:51:14;8.70;;;7.20;;
12267;SDS011;6196;48.398;11.736;2022-11-15T16:53:41;10.53;;;7.93;;
12267;SDS011;6196;48.398;11.736;2022-11-15T16:58:57;8.57;;;7.23;;
12267;SDS011;6196;48.398;11.736;2022-11-15T17:01:26;9.83;;;7.40;;
12267;SDS011;6196;48.398;11.736;2022-11-15T17:03:58;6.60;;;5.93;;
12267;SDS011;6196;48.398;11.736;2022-11-15T17:06:41;7.43;;;5.47;;
12267;SDS011;6196;48.398;11.736;2022-11-15T17:09:13;8.33;;;7.23;;
12267;SDS011;6196;48.398;11.736;2022-11-15T17:11:43;8.70;;;7.80;;
12267;SDS011;6196;48.398;11.736;2022-11-15T17:14:10;10.03;;;9.00;;
12267;SDS011;6196;48.398;11.736;2022-11-15T17:16:38;10.47;;;8.30;;
12267;SDS011;6196;48.398;11.736;2022-11-15T17:19:11;7.07;;;6.37;;
12267;SDS011;6196;48.398;11.736;2022-11-15T17:21:43;6.70;;;6.03;;
12267;SDS011;6196;48.398;11.736;2022-11-15T17:24:11;7.30;;;6.60;;
12267;SDS011;6196;48.398;11.736;2022-11-15T17:26:38;7.50;;;6.20;;
12267;SDS011;6196;48.398;11.736;2022-11-15T17:29:06;8.27;;;6.27;;